Time;durP1;ratioP1;P1;durP2;ratioP2;P2;SDS_P1;SDS_P2;PMS_P1;PMS_P2;Temp;Humidity;BMP_temperature;BMP_pressure;BME280_temperature;BME280_humidity;BME280_pressure;Samples;Min_cycle;Max_cycle;Signal;HPM_P1;HPM_P2
2023/01/17 00:01:59;;;;;;;0.60;0.60;;;4.70;99.90;;;;;;5073819;28;20216;-65
2023/01/17 00:09:58;;;;;;;0.40;0.40;;;4.80;99.90;;;;;;5068485;28;20266;-66
2023/01/17 00:12:27;;;;;;;0.50;0.50;;;4.80;99.90;;;;;;5055386;28;20212;-65
2023/01/17 00:14:55;;;;;;;0.40;0.40;;;4.80;99.90;;;;;;5054786;28;20222;-66
2023/01/17 00:17:24;;;;;;;0.50;0.50;;;4.90;99.90;;;;;;5055741;28;20235;-66
2023/01/17 01:34:59;;;;;;;0.50;0.50;;;5.50;99.90;;;;;;5051254;28;20253;-65
2023/01/17 01:37:27;;;;;;;0.37;0.37;;;5.50;99.90;;;;;;5051228;28;20234;-67
2023/01/17 01:39:54;;;;;;;0.50;0.50;;;5.50;99.90;;;;;;5051023;28;20261;-65
2023/01/17 01:42:21;;;;;;;0.60;0.60;;;5.50;99.90;;;;;;5051273;28;20287;-67
2023/01/17 01:44:49;;;;;;;0.50;0.50;;;5.40;99.90;;;;;;5051562;28;20204;-65
2023/01/17 01:47:22;;;;;;;0.77;0.77;;;5.40;99.90;;;;;;5051736;28;20243;-66
2023/01/17 01:49:50;;;;;;;0.40;0.40;;;5.40;99.90;;;;;;5051011;28;20199;-68
2023/01/17 01:52:18;;;;;;;0.97;0.50;;;5.40;99.90;;;;;;5050374;28;20202;-66
2023/01/17 01:54:50;;;;;;;0.40;0.40;;;5.50;99.90;;;;;;5051285;28;20998;-67
2023/01/17 01:57:21;;;;;;;0.50;0.50;;;5.70;99.90;;;;;;5051257;28;20226;-65
2023/01/17 01:59:53;;;;;;;0.40;0.40;;;5.50;99.90;;;;;;5053675;28;20303;-65
2023/01/17 02:02:20;;;;;;;0.37;0.37;;;5.50;99.90;;;;;;5056050;28;20204;-66
2023/01/17 02:04:48;;;;;;;0.40;0.40;;;5.60;99.90;;;;;;5051793;28;20207;-65
2023/01/17 02:07:19;;;;;;;0.50;0.50;;;5.70;99.90;;;;;;5052008;28;20777;-67
2023/01/17 02:09:48;;;;;;;0.40;0.40;;;5.70;99.90;;;;;;5052536;28;20599;-68
2023/01/17 02:12:17;;;;;;;0.40;0.40;;;5.70;99.90;;;;;;5059806;28;20196;-65
2023/01/17 02:14:44;;;;;;;0.50;0.50;;;5.60;99.90;;;;;;5057813;28;20212;-67
2023/01/17 02:17:20;;;;;;;0.40;0.40;;;5.50;99.90;;;;;;5060529;28;20226;-65
2023/01/17 02:20:10;;;;;;;0.57;0.57;;;5.50;99.90;;;;;;5058532;28;20200;-65
2023/01/17 02:23:18;;;;;;;0.40;0.40;;;5.60;99.90;;;;;;5052054;28;20279;-65
2023/01/17 02:26:17;;;;;;;0.65;0.65;;;5.60;99.90;;;;;;5003922;28;20253;-67
2023/01/17 02:29:05;;;;;;;0.40;0.40;;;5.50;99.90;;;;;;5052571;28;20228;-67
2023/01/17 02:31:41;;;;;;;0.50;0.50;;;5.50;99.90;;;;;;5061292;28;20211;-66
2023/01/17 02:34:17;;;;;;;0.53;0.53;;;5.50;99.90;;;;;;5058787;28;20259;-66
2023/01/17 02:36:49;;;;;;;0.50;0.50;;;5.50;99.90;;;;;;5059373;28;20188;-67
2023/01/17 02:39:21;;;;;;;0.57;0.57;;;5.50;99.90;;;;;;5059636;28;20255;-66
2023/01/17 02:41:54;;;;;;;1.90;0.60;;;5.50;99.90;;;;;;5060642;28;20194;-67
2023/01/17 02:44:21;;;;;;;0.60;0.60;;;5.50;99.90;;;;;;5063273;28;20276;-67
2023/01/17 02:46:52;;;;;;;0.40;0.40;;;5.50;99.90;;;;;;5064632;28;20208;-66
2023/01/17 02:49:23;;;;;;;0.37;0.37;;;5.50;99.90;;;;;;5062710;28;20206;-66
2023/01/17 02:52:12;;;;;;;0.40;0.40;;;5.50;99.90;;;;;;5061891;28;20294;-66
2023/01/17 02:55:00;;;;;;;0.47;0.47;;;5.50;99.90;;;;;;5053688;28;20222;-67
2023/01/17 02:58:15;;;;;;;0.40;0.40;;;5.60;99.90;;;;;;5051528;28;20238;-66
2023/01/17 03:00:54;;;;;;;0.63;0.50;;;5.60;99.90;;;;;;5051711;28;20230;-66
2023/01/17 03:03:27;;;;;;;0.37;0.37;;;5.70;99.90;;;;;;5050953;28;20256;-67
2023/01/17 03:06:00;;;;;;;0.33;0.33;;;5.70;99.90;;;;;;5050050;28;20214;-64
2023/01/17 03:08:28;;;;;;;0.40;0.40;;;6.00;99.90;;;;;;5053465;28;20234;-67
2023/01/17 03:10:55;;;;;;;0.40;0.40;;;5.80;99.90;;;;;;5053163;28;20204;-67
2023/01/17 03:13:22;;;;;;;0.30;0.30;;;5.80;99.90;;;;;;5051608;28;20220;-65
2023/01/17 03:15:49;;;;;;;0.40;0.40;;;5.90;99.90;;;;;;5049871;28;20291;-67
2023/01/17 03:18:17;;;;;;;0.50;0.50;;;5.90;99.90;;;;;;5050013;28;20238;-64
2023/01/17 03:20:45;;;;;;;0.50;0.50;;;5.80;99.90;;;;;;5049894;28;20682;-67
2023/01/17 03:23:12;;;;;;;0.47;0.47;;;5.70;99.90;;;;;;5049664;28;20214;-65
2023/01/17 03:25:39;;;;;;;0.43;0.43;;;5.70;99.90;;;;;;5050195;28;20234;-67
2023/01/17 03:28:06;;;;;;;0.50;0.50;;;5.60;99.90;;;;;;5053467;28;20220;-66
2023/01/17 03:30:32;;;;;;;0.50;0.50;;;5.60;99.90;;;;;;5053151;28;20196;-66
2023/01/17 03:32:59;;;;;;;0.60;0.60;;;5.60;99.90;;;;;;5053664;28;20227;-67
2023/01/17 03:35:27;;;;;;;0.50;0.50;;;5.60;99.90;;;;;;5053193;28;20238;-66
2023/01/17 03:37:55;;;;;;;0.40;0.40;;;5.60;99.90;;;;;;5054150;28;20723;-67
2023/01/17 03:40:22;;;;;;;0.50;0.50;;;5.60;99.90;;;;;;5053965;28;20299;-68
2023/01/17 03:42:49;;;;;;;0.50;0.50;;;5.60;99.90;;;;;;5058353;28;20204;-66
2023/01/17 03:45:16;;;;;;;0.55;0.55;;;5.50;99.90;;;;;;5054782;28;20246;-64
2023/01/17 03:47:43;;;;;;;0.60;0.60;;;5.50;99.90;;;;;;5059922;28;20232;-66
2023/01/17 03:50:11;;;;;;;0.63;0.63;;;5.40;99.90;;;;;;5060634;28;20960;-65
2023/01/17 03:52:38;;;;;;;0.60;0.60;;;5.40;99.90;;;;;;5056848;28;20208;-66
2023/01/17 03:55:08;;;;;;;0.70;0.70;;;5.30;99.90;;;;;;5053036;28;20338;-65
2023/01/17 03:57:34;;;;;;;0.40;0.40;;;5.40;99.90;;;;;;5053676;28;20224;-66
2023/01/17 04:00:01;;;;;;;0.60;0.60;;;5.40;99.90;;;;;;5053361;28;20250;-66
2023/01/17 04:02:28;;;;;;;0.40;0.40;;;5.40;99.90;;;;;;5054903;28;20299;-67
2023/01/17 04:04:55;;;;;;;0.47;0.47;;;5.30;99.90;;;;;;5055753;28;20263;-67
2023/01/17 04:07:22;;;;;;;0.50;0.50;;;5.40;99.90;;;;;;5067591;28;20287;-67
2023/01/17 04:09:48;;;;;;;0.43;0.43;;;5.30;99.90;;;;;;5056957;28;20203;-67
2023/01/17 04:12:17;;;;;;;0.57;0.57;;;5.20;99.90;;;;;;5056144;28;20271;-66
2023/01/17 04:14:46;;;;;;;0.50;0.50;;;5.20;99.90;;;;;;5054563;28;20228;-67
2023/01/17 04:17:16;;;;;;;0.43;0.43;;;5.10;99.90;;;;;;5053362;28;20259;-65
2023/01/17 04:19:43;;;;;;;0.37;0.37;;;5.20;99.90;;;;;;5055391;28;20250;-65
2023/01/17 04:22:09;;;;;;;0.40;0.40;;;5.10;99.90;;;;;;5055362;28;20646;-66
2023/01/17 04:24:37;;;;;;;0.40;0.40;;;5.10;99.90;;;;;;5057522;28;20286;-65
2023/01/17 04:27:04;;;;;;;0.37;0.37;;;5.00;99.90;;;;;;5053783;28;20256;-64
2023/01/17 04:29:33;;;;;;;0.80;0.80;;;5.10;99.90;;;;;;5053328;28;20246;-67
2023/01/17 04:31:59;;;;;;;0.60;0.40;;;4.90;99.90;;;;;;5052808;28;20295;-67
2023/01/17 04:34:26;;;;;;;0.47;0.47;;;4.90;99.90;;;;;;5052912;28;20231;-66
2023/01/17 04:36:53;;;;;;;0.40;0.40;;;4.90;99.90;;;;;;5052319;28;20304;-68
2023/01/17 04:39:20;;;;;;;0.40;0.40;;;4.90;99.90;;;;;;5052429;28;20204;-66
2023/01/17 04:41:47;;;;;;;0.50;0.50;;;5.00;99.90;;;;;;5052440;28;20244;-65
2023/01/17 04:44:13;;;;;;;0.63;0.63;;;5.00;99.90;;;;;;5052796;28;20200;-67
2023/01/17 04:46:42;;;;;;;0.40;0.40;;;5.00;99.90;;;;;;5052226;28;20203;-66
2023/01/17 04:49:09;;;;;;;0.57;0.57;;;5.00;99.90;;;;;;5052862;28;20216;-65
2023/01/17 04:51:36;;;;;;;0.50;0.50;;;5.00;99.90;;;;;;5053305;28;20228;-67
2023/01/17 04:54:03;;;;;;;0.73;0.73;;;5.00;99.90;;;;;;5052247;28;20255;-66
2023/01/17 04:56:30;;;;;;;0.60;0.60;;;5.00;99.90;;;;;;5053014;28;20287;-67
2023/01/17 04:58:57;;;;;;;0.60;0.60;;;5.10;99.90;;;;;;5051722;28;20262;-65
2023/01/17 05:01:24;;;;;;;0.60;0.60;;;5.10;99.90;;;;;;5052813;28;20288;-66
2023/01/17 05:03:52;;;;;;;0.67;0.67;;;5.00;99.90;;;;;;5053424;28;20678;-67
2023/01/17 05:06:19;;;;;;;0.60;0.60;;;5.00;99.90;;;;;;5051465;28;20204;-67
2023/01/17 05:08:45;;;;;;;0.33;0.33;;;5.00;99.90;;;;;;5052546;28;20391;-67
2023/01/17 05:11:12;;;;;;;0.40;0.40;;;4.90;99.90;;;;;;5051958;28;20204;-67
2023/01/17 05:13:39;;;;;;;0.60;0.60;;;4.90;99.90;;;;;;5051798;28;20693;-67
2023/01/17 05:16:06;;;;;;;0.67;0.50;;;4.90;99.90;;;;;;5051647;28;20204;-68
2023/01/17 05:18:33;;;;;;;0.70;0.70;;;4.90;99.90;;;;;;5052372;28;20240;-66
2023/01/17 05:21:04;;;;;;;0.57;0.57;;;4.90;99.90;;;;;;5054228;28;20715;-64
2023/01/17 05:23:31;;;;;;;0.70;0.70;;;4.90;99.90;;;;;;5051815;28;20685;-66
2023/01/17 05:25:58;;;;;;;0.57;0.57;;;4.90;99.90;;;;;;5051451;28;20298;-65
2023/01/17 05:28:25;;;;;;;0.63;0.63;;;4.90;99.90;;;;;;5051471;28;20231;-64
2023/01/17 05:30:52;;;;;;;0.80;0.80;;;4.80;99.90;;;;;;5052834;28;20630;-67
2023/01/17 05:33:19;;;;;;;0.57;0.57;;;4.80;99.90;;;;;;5053002;28;20304;-66
2023/01/17 05:35:46;;;;;;;0.70;0.70;;;4.70;99.90;;;;;;5052704;28;20248;-66
2023/01/17 05:38:14;;;;;;;0.67;0.67;;;4.70;99.90;;;;;;5052964;28;20231;-65
2023/01/17 05:40:41;;;;;;;0.67;0.67;;;4.70;99.90;;;;;;5055137;28;20228;-66
2023/01/17 05:43:09;;;;;;;0.70;0.70;;;4.60;99.90;;;;;;5056110;28;20238;-65
2023/01/17 05:45:35;;;;;;;0.57;0.57;;;4.50;99.90;;;;;;5069970;28;20826;-64
2023/01/17 05:48:03;;;;;;;0.53;0.53;;;4.50;99.90;;;;;;5059057;28;20303;-67
2023/01/17 05:50:32;;;;;;;0.70;0.70;;;4.40;99.90;;;;;;5053623;28;20334;-65
2023/01/17 05:53:01;;;;;;;0.90;0.90;;;4.30;99.90;;;;;;5056003;28;20238;-65
2023/01/17 05:55:31;;;;;;;0.70;0.70;;;4.30;99.90;;;;;;5053367;28;20220;-66
2023/01/17 05:57:58;;;;;;;0.70;0.70;;;4.20;99.90;;;;;;5052333;28;20227;-65
2023/01/17 06:00:25;;;;;;;0.87;0.87;;;4.20;99.90;;;;;;5051728;28;20299;-65
2023/01/17 06:02:54;;;;;;;0.70;0.70;;;4.20;99.90;;;;;;5051599;28;20218;-67
2023/01/17 06:05:21;;;;;;;0.73;0.73;;;4.20;99.90;;;;;;5051451;28;20200;-66
2023/01/17 06:07:49;;;;;;;0.73;0.73;;;4.20;99.90;;;;;;5051126;28;20315;-64
2023/01/17 06:10:18;;;;;;;0.80;0.80;;;4.20;99.90;;;;;;5054518;28;20219;-66
2023/01/17 06:12:47;;;;;;;0.80;0.80;;;4.10;99.90;;;;;;5054266;28;20207;-66
2023/01/17 06:15:16;;;;;;;0.80;0.80;;;4.20;99.90;;;;;;5051734;28;20220;-67
2023/01/17 06:17:42;;;;;;;0.60;0.60;;;4.10;99.90;;;;;;5052062;28;20231;-66
2023/01/17 06:20:12;;;;;;;0.70;0.70;;;4.00;99.90;;;;;;5052366;28;20238;-67
2023/01/17 06:22:39;;;;;;;1.00;1.00;;;4.00;99.90;;;;;;5053161;28;20729;-67
2023/01/17 06:25:07;;;;;;;1.00;1.00;;;3.90;99.90;;;;;;5051185;28;20214;-66
2023/01/17 06:27:34;;;;;;;1.20;1.20;;;3.90;99.90;;;;;;5052100;28;20315;-67
2023/01/17 06:30:02;;;;;;;0.80;0.80;;;3.90;99.90;;;;;;5051742;28;20216;-65
2023/01/17 06:32:29;;;;;;;0.90;0.90;;;3.80;99.90;;;;;;5051933;28;20524;-67
2023/01/17 06:34:56;;;;;;;0.85;0.85;;;3.80;99.90;;;;;;5054138;28;20578;-67
2023/01/17 06:37:23;;;;;;;0.77;0.77;;;3.80;99.90;;;;;;5061354;28;20307;-65
2023/01/17 06:39:50;;;;;;;0.60;0.60;;;3.80;99.90;;;;;;5051654;28;20204;-66
2023/01/17 06:42:16;;;;;;;0.80;0.80;;;3.80;99.90;;;;;;5048919;28;20203;-66
2023/01/17 06:44:43;;;;;;;0.63;0.63;;;3.80;99.90;;;;;;5051790;28;20188;-66
2023/01/17 06:47:11;;;;;;;0.60;0.60;;;3.80;99.90;;;;;;5052292;28;20224;-64
2023/01/17 06:49:38;;;;;;;0.70;0.70;;;3.80;99.90;;;;;;5053506;28;20302;-64
2023/01/17 06:52:05;;;;;;;0.70;0.70;;;3.80;99.90;;;;;;5053466;28;20696;-65
2023/01/17 06:54:32;;;;;;;0.77;0.77;;;3.80;99.90;;;;;;5053329;28;20228;-66
2023/01/17 06:56:59;;;;;;;1.10;1.00;;;3.80;99.90;;;;;;5053046;28;20394;-65
2023/01/17 06:59:25;;;;;;;1.07;1.07;;;3.70;99.90;;;;;;5053610;28;20346;-65
2023/01/17 07:01:52;;;;;;;1.10;1.10;;;3.70;99.90;;;;;;5066015;28;20250;-65
2023/01/17 07:04:20;;;;;;;0.90;0.90;;;3.80;99.90;;;;;;5068320;28;20242;-66
2023/01/17 07:06:47;;;;;;;0.70;0.70;;;3.60;99.90;;;;;;5066428;28;20287;-66
2023/01/17 07:09:14;;;;;;;0.80;0.80;;;3.60;99.90;;;;;;5058494;28;20282;-65
2023/01/17 07:11:41;;;;;;;0.60;0.60;;;3.60;99.90;;;;;;5062003;28;20209;-64
2023/01/17 07:14:13;;;;;;;0.90;0.90;;;3.50;99.90;;;;;;5061768;28;20211;-69
2023/01/17 07:16:42;;;;;;;0.80;0.80;;;3.50;99.90;;;;;;5057134;28;20204;-66
2023/01/17 07:19:09;;;;;;;0.90;0.90;;;3.50;99.90;;;;;;5055710;28;20204;-66
2023/01/17 07:21:37;;;;;;;0.90;0.90;;;3.60;99.90;;;;;;5057085;28;20200;-67
2023/01/17 07:24:05;;;;;;;0.87;0.87;;;3.30;99.90;;;;;;5059588;28;20200;-67
2023/01/17 07:26:31;;;;;;;1.00;1.00;;;3.30;99.90;;;;;;5073314;28;20222;-65
2023/01/17 07:28:58;;;;;;;0.90;0.90;;;3.30;99.90;;;;;;5057944;28;20318;-65
2023/01/17 07:31:25;;;;;;;0.70;0.70;;;3.40;99.90;;;;;;5045716;28;20207;-65
2023/01/17 07:33:53;;;;;;;0.97;0.80;;;3.40;99.90;;;;;;5054447;28;20208;-67
2023/01/17 07:36:20;;;;;;;0.70;0.70;;;3.40;99.90;;;;;;5052534;28;20223;-65
2023/01/17 07:38:48;;;;;;;0.87;0.87;;;3.40;99.90;;;;;;5038888;28;20246;-65
2023/01/17 07:41:14;;;;;;;1.00;1.00;;;3.40;99.90;;;;;;5054385;28;20202;-66
2023/01/17 07:43:41;;;;;;;0.73;0.73;;;3.40;99.90;;;;;;5054980;28;20206;-66
2023/01/17 07:46:08;;;;;;;0.80;0.80;;;3.50;99.90;;;;;;5053926;28;20206;-67
2023/01/17 07:48:35;;;;;;;0.90;0.90;;;3.50;99.90;;;;;;5054331;28;20598;-65
2023/01/17 07:51:02;;;;;;;0.80;0.80;;;3.60;99.90;;;;;;5055069;28;20204;-65
2023/01/17 07:53:31;;;;;;;0.80;0.80;;;3.50;99.90;;;;;;5055057;28;20222;-66
2023/01/17 07:56:03;;;;;;;0.83;0.83;;;3.60;99.90;;;;;;5054776;28;20274;-66
2023/01/17 07:58:30;;;;;;;0.87;0.87;;;3.60;99.90;;;;;;5055313;28;20707;-65
2023/01/17 08:01:01;;;;;;;0.80;0.80;;;3.60;99.90;;;;;;5054983;28;20214;-67
2023/01/17 08:03:31;;;;;;;0.70;0.70;;;3.60;99.90;;;;;;5055266;28;20210;-66
2023/01/17 08:05:57;;;;;;;0.70;0.70;;;3.60;99.90;;;;;;5054415;28;20258;-66
2023/01/17 08:08:24;;;;;;;0.70;0.70;;;3.70;99.90;;;;;;5054519;28;20231;-64
2023/01/17 08:10:52;;;;;;;0.60;0.60;;;3.70;99.90;;;;;;5052886;28;20291;-65
2023/01/17 08:13:20;;;;;;;0.60;0.60;;;3.70;99.90;;;;;;5052239;28;20208;-65
2023/01/17 08:15:48;;;;;;;0.70;0.70;;;3.70;99.90;;;;;;5054618;28;20223;-65
2023/01/17 08:18:15;;;;;;;1.20;0.60;;;3.70;99.90;;;;;;5067116;28;20485;-68
2023/01/17 08:20:43;;;;;;;0.70;0.70;;;3.70;99.90;;;;;;5068377;28;20235;-64
2023/01/17 08:23:11;;;;;;;0.60;0.60;;;3.70;99.90;;;;;;5068616;28;20196;-64
2023/01/17 08:25:38;;;;;;;0.80;0.80;;;3.70;99.90;;;;;;5068659;28;20261;-64
2023/01/17 08:28:05;;;;;;;0.70;0.70;;;3.70;99.90;;;;;;5067699;28;20299;-63
2023/01/17 08:30:34;;;;;;;0.60;0.60;;;3.80;99.90;;;;;;5062882;28;20294;-64
2023/01/17 08:33:01;;;;;;;0.50;0.50;;;3.90;99.90;;;;;;5063723;28;20275;-64
2023/01/17 08:35:28;;;;;;;0.80;0.80;;;3.90;99.90;;;;;;5066990;28;20287;-65
2023/01/17 08:37:56;;;;;;;0.80;0.80;;;4.00;99.90;;;;;;5061203;28;20318;-65
2023/01/17 08:40:23;;;;;;;0.80;0.80;;;4.10;99.90;;;;;;5054853;28;20208;-64
2023/01/17 08:42:54;;;;;;;0.90;0.90;;;4.10;99.90;;;;;;5054029;28;20214;-65
2023/01/17 08:45:21;;;;;;;0.70;0.70;;;4.10;99.90;;;;;;5057828;28;20235;-67
2023/01/17 08:47:50;;;;;;;0.70;0.70;;;4.20;99.90;;;;;;5059427;28;20661;-66
2023/01/17 08:50:19;;;;;;;0.70;0.70;;;4.40;99.90;;;;;;5055191;28;20210;-67
2023/01/17 08:52:47;;;;;;;0.80;0.80;;;4.40;99.90;;;;;;5073499;28;20203;-65
2023/01/17 08:55:14;;;;;;;0.83;0.83;;;4.40;99.90;;;;;;5073646;28;20216;-66
2023/01/17 08:57:41;;;;;;;0.83;0.83;;;4.40;99.90;;;;;;5056313;28;20694;-66
2023/01/17 09:00:09;;;;;;;0.97;0.97;;;4.40;99.90;;;;;;5053605;28;20718;-66
2023/01/17 09:02:36;;;;;;;1.07;0.87;;;4.40;99.90;;;;;;5059767;28;20195;-64
2023/01/17 09:05:05;;;;;;;1.10;1.03;;;4.60;99.90;;;;;;5059339;28;20234;-63
2023/01/17 09:07:32;;;;;;;0.90;0.90;;;4.90;99.90;;;;;;5084097;28;20227;-65
2023/01/17 09:09:59;;;;;;;0.70;0.70;;;5.10;99.90;;;;;;5056609;28;20204;-65
2023/01/17 09:12:26;;;;;;;0.50;0.50;;;5.20;99.90;;;;;;5053754;28;20307;-64
2023/01/17 09:14:53;;;;;;;1.13;0.80;;;5.60;99.90;;;;;;5052409;28;20311;-65
2023/01/17 09:17:19;;;;;;;1.00;1.00;;;5.70;99.90;;;;;;5053163;28;20231;-65
2023/01/17 09:19:47;;;;;;;0.73;0.73;;;5.90;99.90;;;;;;5052603;28;20314;-66
2023/01/17 09:22:15;;;;;;;2.10;1.30;;;6.00;99.90;;;;;;5052295;28;20208;-66
2023/01/17 09:24:42;;;;;;;0.87;0.87;;;6.10;99.90;;;;;;5052485;28;20208;-65
2023/01/17 09:27:09;;;;;;;1.00;1.00;;;6.10;99.90;;;;;;5052858;28;20226;-66
2023/01/17 09:29:36;;;;;;;0.53;0.53;;;6.20;99.90;;;;;;5053573;28;20200;-64
2023/01/17 09:32:03;;;;;;;1.07;1.07;;;6.30;99.90;;;;;;5053742;28;20212;-64
2023/01/17 09:34:30;;;;;;;1.10;0.83;;;6.30;99.90;;;;;;5052626;28;20650;-66
2023/01/17 09:36:57;;;;;;;0.90;0.90;;;6.40;99.90;;;;;;5046293;28;20319;-65
2023/01/17 09:39:25;;;;;;;0.70;0.70;;;6.60;99.90;;;;;;5050901;28;20204;-65
2023/01/17 09:41:57;;;;;;;0.80;0.80;;;6.70;99.90;;;;;;5052989;28;20690;-66
2023/01/17 09:44:27;;;;;;;0.73;0.73;;;6.80;99.90;;;;;;5053323;28;20222;-66
2023/01/17 09:46:57;;;;;;;0.80;0.80;;;6.90;99.90;;;;;;5052594;28;20203;-66
2023/01/17 09:49:33;;;;;;;0.60;0.60;;;7.10;99.90;;;;;;5054568;28;20594;-64
2023/01/17 09:52:01;;;;;;;0.50;0.50;;;7.30;99.90;;;;;;5054072;28;20203;-65
2023/01/17 09:54:34;;;;;;;0.60;0.60;;;7.40;99.90;;;;;;5053837;28;20207;-65
2023/01/17 09:57:09;;;;;;;0.93;0.80;;;7.50;99.90;;;;;;5055423;28;20286;-66
2023/01/17 09:59:45;;;;;;;0.47;0.47;;;7.60;99.90;;;;;;5054388;28;20205;-64
2023/01/17 10:02:43;;;;;;;0.50;0.50;;;7.70;99.90;;;;;;5053287;28;20228;-65
2023/01/17 10:05:32;;;;;;;0.80;0.80;;;7.70;99.90;;;;;;5050582;28;20218;-63
2023/01/17 10:08:09;;;;;;;0.43;0.43;;;7.70;99.90;;;;;;5060119;28;20342;-64
2023/01/17 10:10:42;;;;;;;1.63;0.80;;;7.60;99.90;;;;;;5057490;28;20210;-67
2023/01/17 10:13:27;;;;;;;0.50;0.50;;;7.60;99.90;;;;;;5056435;28;20578;-64
2023/01/17 10:16:04;;;;;;;0.47;0.47;;;7.50;99.90;;;;;;5055401;28;20753;-65
2023/01/17 10:19:11;;;;;;;0.40;0.40;;;7.30;99.90;;;;;;5047967;28;20226;-66
2023/01/17 10:22:01;;;;;;;0.53;0.53;;;7.10;99.90;;;;;;4989195;28;20560;-64
2023/01/17 10:24:55;;;;;;;0.60;0.60;;;7.00;99.90;;;;;;4990638;28;20328;-64
2023/01/17 10:27:27;;;;;;;0.70;0.70;;;7.00;99.90;;;;;;5012594;28;20228;-64
2023/01/17 10:29:54;;;;;;;0.90;0.90;;;6.80;99.90;;;;;;5032703;28;20215;-65
2023/01/17 10:32:24;;;;;;;0.90;0.90;;;6.50;99.90;;;;;;5033264;28;20209;-65
2023/01/17 10:34:53;;;;;;;0.90;0.90;;;6.30;99.90;;;;;;5032475;28;20205;-64
2023/01/17 10:37:24;;;;;;;0.90;0.90;;;6.10;99.90;;;;;;5035901;28;20236;-65
2023/01/17 10:39:54;;;;;;;0.80;0.80;;;5.90;99.90;;;;;;5048328;28;20224;-66
2023/01/17 10:42:26;;;;;;;1.10;1.10;;;5.80;99.90;;;;;;5045474;28;20201;-66
2023/01/17 10:45:03;;;;;;;1.13;1.10;;;5.70;99.90;;;;;;5042053;28;20204;-67
2023/01/17 10:47:35;;;;;;;1.10;1.10;;;5.60;99.90;;;;;;5038106;28;20224;-66
2023/01/17 10:50:04;;;;;;;1.57;1.47;;;5.70;99.90;;;;;;5042770;28;20219;-64
2023/01/17 10:52:38;;;;;;;1.17;1.17;;;5.60;99.90;;;;;;5039245;28;20562;-65
2023/01/17 10:55:15;;;;;;;1.10;1.10;;;5.70;99.90;;;;;;5034086;28;20204;-66
2023/01/17 10:57:45;;;;;;;1.20;1.20;;;5.80;99.90;;;;;;5033860;28;20240;-65
2023/01/17 11:00:42;;;;;;;1.20;1.20;;;6.00;99.90;;;;;;5032285;28;20635;-65
2023/01/17 11:03:10;;;;;;;1.00;1.00;;;6.20;99.90;;;;;;5031635;28;20588;-66
2023/01/17 11:05:39;;;;;;;1.10;1.10;;;6.40;99.90;;;;;;5031935;28;20584;-67
2023/01/17 11:08:07;;;;;;;1.00;1.00;;;6.50;99.90;;;;;;5031666;28;20618;-65
2023/01/17 11:10:38;;;;;;;1.00;1.00;;;6.60;99.90;;;;;;5031242;28;20208;-64
2023/01/17 11:13:20;;;;;;;0.70;0.70;;;6.70;99.90;;;;;;5032119;28;20659;-66
2023/01/17 11:15:50;;;;;;;0.80;0.80;;;6.90;99.90;;;;;;5034453;28;20229;-65
2023/01/17 11:18:19;;;;;;;1.23;1.20;;;7.00;99.90;;;;;;5032080;28;20730;-64
2023/01/17 11:20:46;;;;;;;2.03;1.83;;;7.00;99.90;;;;;;5031119;28;20727;-65
2023/01/17 11:23:17;;;;;;;1.40;1.30;;;7.00;99.90;;;;;;5030566;28;20245;-64
2023/01/17 11:25:51;;;;;;;1.07;1.07;;;7.20;99.90;;;;;;5030378;28;20201;-66
2023/01/17 11:28:24;;;;;;;0.90;0.90;;;7.40;99.90;;;;;;5030365;28;20228;-66
2023/01/17 11:30:54;;;;;;;0.93;0.93;;;7.40;99.90;;;;;;5030319;28;20200;-64
2023/01/17 11:33:43;;;;;;;0.80;0.80;;;7.30;99.90;;;;;;5029966;28;20635;-64
2023/01/17 11:36:16;;;;;;;0.90;0.90;;;7.30;99.90;;;;;;5029674;28;20303;-65
2023/01/17 11:38:55;;;;;;;0.90;0.90;;;7.30;99.90;;;;;;5030252;28;20279;-66
2023/01/17 11:41:22;;;;;;;0.70;0.70;;;7.40;99.90;;;;;;5030604;28;20200;-64
2023/01/17 11:43:53;;;;;;;0.87;0.87;;;7.50;99.90;;;;;;5029743;28;20208;-64
2023/01/17 11:46:21;;;;;;;1.00;1.00;;;7.50;99.90;;;;;;5030156;28;20706;-65
2023/01/17 11:48:50;;;;;;;0.80;0.80;;;7.50;99.90;;;;;;5033842;28;20224;-66
2023/01/17 11:51:23;;;;;;;1.00;1.00;;;7.40;99.90;;;;;;5032039;28;20211;-64
2023/01/17 11:53:51;;;;;;;1.10;1.00;;;7.40;99.90;;;;;;5034309;28;20222;-65
2023/01/17 11:56:29;;;;;;;1.07;1.00;;;7.40;99.90;;;;;;5034691;28;20212;-65
2023/01/17 11:59:33;;;;;;;1.00;1.00;;;7.30;99.90;;;;;;5036192;28;20285;-66
2023/01/17 12:02:21;;;;;;;1.10;1.10;;;7.40;99.90;;;;;;5037951;28;20215;-66
2023/01/17 12:04:52;;;;;;;1.10;1.10;;;7.40;99.90;;;;;;5034917;28;20354;-66
2023/01/17 12:07:28;;;;;;;0.93;0.93;;;7.50;99.90;;;;;;5033739;28;20228;-66
2023/01/17 12:10:05;;;;;;;1.00;1.00;;;7.50;99.90;;;;;;5035363;28;20734;-64
2023/01/17 12:15:44;;;;;;;0.93;0.93;;;7.50;99.90;;;;;;5033403;28;20302;-66
2023/01/17 12:18:39;;;;;;;0.60;0.60;;;7.60;99.90;;;;;;5034698;28;20228;-64
2023/01/17 12:21:24;;;;;;;0.70;0.70;;;7.70;99.90;;;;;;5034070;28;20235;-64
2023/01/17 12:24:06;;;;;;;0.40;0.40;;;7.70;99.90;;;;;;5036368;28;20205;-64
2023/01/17 12:26:40;;;;;;;0.70;0.70;;;7.60;99.90;;;;;;5036284;28;20215;-65
2023/01/17 12:29:34;;;;;;;0.80;0.80;;;7.70;99.90;;;;;;5041438;28;20240;-64
2023/01/17 12:32:24;;;;;;;0.70;0.70;;;7.70;99.90;;;;;;5042402;28;20205;-66
2023/01/17 12:34:57;;;;;;;0.93;0.50;;;7.80;99.90;;;;;;5034157;28;20742;-64
2023/01/17 12:37:33;;;;;;;0.67;0.60;;;7.80;99.90;;;;;;5038041;28;20322;-65
2023/01/17 12:40:06;;;;;;;0.60;0.60;;;7.80;99.90;;;;;;5042046;28;20208;-64
2023/01/17 12:42:37;;;;;;;0.70;0.70;;;7.80;99.90;;;;;;5040611;28;20204;-65
2023/01/17 12:45:09;;;;;;;0.70;0.70;;;7.90;99.90;;;;;;5039776;28;20203;-64
2023/01/17 12:47:43;;;;;;;0.50;0.50;;;7.90;99.90;;;;;;5051075;28;20269;-66
2023/01/17 12:50:20;;;;;;;0.50;0.50;;;7.90;99.90;;;;;;5057568;28;20199;-66
2023/01/17 12:52:53;;;;;;;0.50;0.50;;;7.90;99.90;;;;;;5056390;28;20272;-66
2023/01/17 12:55:27;;;;;;;0.50;0.50;;;7.90;99.90;;;;;;5058033;28;20203;-65
2023/01/17 12:57:58;;;;;;;0.60;0.60;;;7.90;99.90;;;;;;5060201;28;20386;-67
2023/01/17 13:00:28;;;;;;;0.50;0.50;;;8.00;99.90;;;;;;5064117;28;20285;-64
2023/01/17 13:03:04;;;;;;;0.57;0.50;;;8.00;99.90;;;;;;5062055;28;20196;-65
2023/01/17 13:05:35;;;;;;;0.43;0.43;;;7.90;99.90;;;;;;5060737;28;20191;-65
2023/01/17 13:08:11;;;;;;;0.50;0.50;;;8.00;99.90;;;;;;5058811;28;20231;-66
2023/01/17 13:10:44;;;;;;;0.50;0.50;;;8.00;99.90;;;;;;5056639;28;20672;-65
2023/01/17 13:13:19;;;;;;;0.47;0.47;;;8.00;99.90;;;;;;5056929;28;20667;-66
2023/01/17 13:15:49;;;;;;;0.60;0.60;;;8.00;99.90;;;;;;5048028;28;20294;-65
2023/01/17 13:18:21;;;;;;;0.40;0.40;;;7.90;99.90;;;;;;5055843;28;20234;-66
2023/01/17 13:21:22;;;;;;;0.53;0.53;;;7.90;99.90;;;;;;5055327;28;20275;-66
2023/01/17 13:24:17;;;;;;;0.50;0.50;;;7.80;99.90;;;;;;5041814;28;20578;-67
2023/01/17 13:27:11;;;;;;;0.40;0.40;;;7.70;99.90;;;;;;5063464;28;20199;-66
2023/01/17 13:29:51;;;;;;;0.93;0.70;;;7.60;99.90;;;;;;5074035;28;20846;-66
2023/01/17 13:32:32;;;;;;;0.60;0.60;;;7.60;99.90;;;;;;5073734;28;20191;-65
2023/01/17 13:35:17;;;;;;;0.57;0.57;;;7.50;99.90;;;;;;5058594;28;20223;-64
2023/01/17 13:38:03;;;;;;;0.60;0.60;;;7.50;99.90;;;;;;5051998;28;20259;-65
2023/01/17 13:40:39;;;;;;;0.30;0.30;;;7.50;99.90;;;;;;5052138;28;20282;-64
2023/01/17 13:43:13;;;;;;;1.20;0.43;;;7.50;99.90;;;;;;5053828;28;20204;-66
2023/01/17 13:45:40;;;;;;;0.40;0.40;;;7.40;99.90;;;;;;5056947;28;20643;-66
2023/01/17 13:48:36;;;;;;;0.60;0.60;;;7.40;99.90;;;;;;5059663;28;20720;-65
2023/01/17 13:51:05;;;;;;;0.53;0.53;;;7.40;99.90;;;;;;5054989;28;20208;-65
2023/01/17 13:53:57;;;;;;;0.47;0.47;;;7.40;99.90;;;;;;5062597;28;20203;-66
2023/01/17 13:56:32;;;;;;;0.50;0.50;;;7.40;99.90;;;;;;5064473;28;20196;-67
2023/01/17 13:59:03;;;;;;;0.50;0.50;;;7.40;99.90;;;;;;5050295;28;20858;-66
2023/01/17 14:01:49;;;;;;;0.50;0.50;;;7.40;99.90;;;;;;5049560;28;20622;-65
2023/01/17 14:04:16;;;;;;;0.50;0.50;;;7.40;99.90;;;;;;5047895;28;20207;-65
2023/01/17 14:06:46;;;;;;;0.50;0.50;;;7.40;99.90;;;;;;5048599;28;20284;-66
2023/01/17 14:09:21;;;;;;;0.67;0.43;;;7.30;99.90;;;;;;5055643;28;20226;-65
2023/01/17 14:12:04;;;;;;;0.57;0.57;;;7.30;99.90;;;;;;5052070;28;20210;-66
2023/01/17 14:14:44;;;;;;;0.63;0.63;;;7.20;99.90;;;;;;5039858;28;20299;-66
2023/01/17 14:17:44;;;;;;;0.50;0.50;;;7.20;99.90;;;;;;5044973;28;20231;-65
2023/01/17 14:21:00;;;;;;;0.43;0.43;;;7.20;99.90;;;;;;5048970;28;20204;-66
2023/01/17 14:23:37;;;;;;;0.63;0.63;;;7.20;99.90;;;;;;5053003;28;20208;-66
2023/01/17 14:26:30;;;;;;;0.70;0.70;;;7.20;99.90;;;;;;5051273;28;20294;-65
2023/01/17 14:28:59;;;;;;;1.17;0.70;;;7.20;99.90;;;;;;5052654;28;20263;-67
2023/01/17 14:31:27;;;;;;;0.60;0.60;;;7.10;99.90;;;;;;5052207;28;20210;-66
2023/01/17 14:33:54;;;;;;;0.50;0.50;;;7.10;99.90;;;;;;5052243;28;20207;-66
2023/01/17 14:36:28;;;;;;;0.60;0.60;;;7.00;99.90;;;;;;5052181;28;20283;-65
2023/01/17 14:38:56;;;;;;;0.70;0.70;;;7.10;99.90;;;;;;5056451;28;20224;-66
2023/01/17 14:41:27;;;;;;;1.10;1.00;;;7.00;99.90;;;;;;5053268;28;20291;-65
2023/01/17 14:43:54;;;;;;;0.67;0.67;;;7.00;99.90;;;;;;5052859;28;20204;-67
2023/01/17 14:46:26;;;;;;;0.70;0.70;;;7.00;99.90;;;;;;5059887;28;20298;-65